createdAt,value
2019-03-22T00:02:40.172Z,103094.77
2019-03-22T00:05:45.129Z,103094.95
2019-03-22T00:08:50.125Z,103086.05
2019-03-22T00:11:54.976Z,103097.30
2019-03-22T00:14:59.776Z,103097.73
2019-03-22T00:18:04.705Z,103102.05
2019-03-22T00:21:09.514Z,103104.81
2019-03-22T00:24:14.447Z,103111.37
2019-03-22T00:27:19.397Z,103117.47
2019-03-22T00:30:24.318Z,103119.02
2019-03-22T00:33:29.234Z,103117.91
2019-03-22T00:36:34.064Z,103112.52
2019-03-22T00:39:38.883Z,103119.77
2019-03-22T00:42:43.693Z,103124.94
2019-03-22T00:45:48.643Z,103150.99
2019-03-22T00:48:54.957Z,103138.25
2019-03-22T00:52:01.585Z,103150.03
2019-03-22T00:55:06.784Z,103147.99
2019-03-22T00:58:11.822Z,103143.41
2019-03-22T01:01:16.757Z,103148.70
2019-03-22T01:04:23.706Z,103135.67
2019-03-22T01:07:28.536Z,103123.90
2019-03-22T01:10:33.385Z,103126.77
2019-03-22T01:13:39.320Z,103131.73
2019-03-22T01:16:44.218Z,103139.67
2019-03-22T01:19:49.035Z,103155.86
2019-03-22T01:22:53.868Z,103159.89
2019-03-22T01:25:58.745Z,103167.23
2019-03-22T01:29:03.893Z,103173.34
2019-03-22T01:32:10.132Z,103177.25
2019-03-22T01:35:18.233Z,103176.47
2019-03-22T01:38:23.147Z,103165.83
2019-03-22T01:41:27.975Z,103176.77
2019-03-22T01:44:32.836Z,103169.16
2019-03-22T01:47:38.333Z,103171.80
2019-03-22T01:50:43.161Z,103171.69
2019-03-22T01:53:49.067Z,103159.48
2019-03-22T01:56:54.132Z,103155.72
2019-03-22T01:59:58.968Z,103161.99
2019-03-22T02:03:03.988Z,103158.45
2019-03-22T02:06:08.895Z,103148.73
2019-03-22T02:09:13.710Z,103139.83
2019-03-22T02:12:18.802Z,103137.03
2019-03-22T02:15:23.709Z,103134.48
2019-03-22T02:18:31.171Z,103130.05
2019-03-22T02:21:36.658Z,103133.34
2019-03-22T02:24:41.579Z,103132.32
2019-03-22T02:27:46.600Z,103129.61
2019-03-22T02:30:52.952Z,103125.02
2019-03-22T02:33:57.910Z,103122.28
2019-03-22T02:37:02.698Z,103113.63
2019-03-22T02:40:08.185Z,103119.91
2019-03-22T02:43:13.065Z,103134.20
2019-03-22T02:46:17.901Z,103144.78
2019-03-22T02:49:22.833Z,103135.52
2019-03-22T02:52:27.734Z,103130.56
2019-03-22T02:55:32.667Z,103139.25
2019-03-22T02:58:37.609Z,103139.94
2019-03-22T03:01:42.621Z,103136.73
2019-03-22T03:04:47.446Z,103133.77
2019-03-22T03:07:52.277Z,103133.73
2019-03-22T03:10:57.435Z,103122.38
2019-03-22T03:14:02.261Z,103117.73
2019-03-22T03:17:07.218Z,103115.22
2019-03-22T03:20:12.891Z,103117.48
2019-03-22T03:23:17.701Z,103115.91
2019-03-22T03:26:22.637Z,103113.61
2019-03-22T03:29:28.481Z,103117.41
2019-03-22T03:32:33.486Z,103125.29
2019-03-22T03:35:38.485Z,103128.87
2019-03-22T03:38:43.402Z,103131.28
2019-03-22T03:41:50.590Z,103131.35
2019-03-22T03:44:55.476Z,103130.61
2019-03-22T03:48:00.837Z,103136.94
2019-03-22T03:51:08.348Z,103131.38
2019-03-22T03:54:16.209Z,103135.80
2019-03-22T03:57:21.117Z,103127.09
2019-03-22T04:00:26.072Z,103130.22
2019-03-22T04:03:30.881Z,103138.93
2019-03-22T04:06:37.741Z,103132.92
2019-03-22T04:09:42.621Z,103141.63
2019-03-22T04:12:47.652Z,103143.13
2019-03-22T04:15:52.480Z,103148.91
2019-03-22T04:18:57.407Z,103153.75
2019-03-22T04:22:02.332Z,103153.42
2019-03-22T04:25:07.385Z,103148.06
2019-03-22T04:28:12.225Z,103139.97
2019-03-22T04:31:17.148Z,103143.94
2019-03-22T04:34:22.076Z,103149.08
2019-03-22T04:37:27.030Z,103148.76
2019-03-22T04:40:33.141Z,103156.70
2019-03-22T04:43:37.977Z,103149.98
2019-03-22T04:46:44.654Z,103142.47
2019-03-22T04:49:52.095Z,103134.86
2019-03-22T04:52:57.637Z,103143.76
2019-03-22T04:56:06.310Z,103147.51
2019-03-22T04:59:19.297Z,103146.54
2019-03-22T05:02:22.350Z,103141.28
2019-03-22T05:05:27.385Z,103140.02
2019-03-22T05:08:35.473Z,103142.05
2019-03-22T05:11:41.617Z,103151.16
2019-03-22T05:14:47.099Z,103147.47
2019-03-22T05:17:52.669Z,103145.61
2019-03-22T05:20:58.405Z,103143.05
2019-03-22T05:24:05.685Z,103142.13
2019-03-22T05:27:11.499Z,103143.34
2019-03-22T05:31:01.069Z,103151.77
2019-03-22T05:34:06.000Z,103151.47
2019-03-22T05:37:10.917Z,103148.51
2019-03-22T05:40:15.733Z,103147.16
2019-03-22T05:43:20.705Z,103149.55
2019-03-22T05:46:25.615Z,103146.93
2019-03-22T05:49:33.513Z,103150.51
2019-03-22T05:52:38.350Z,103151.28
2019-03-22T05:55:43.211Z,103151.02
2019-03-22T05:58:49.897Z,103163.38
2019-03-22T06:01:54.822Z,103159.53
2019-03-22T06:04:59.768Z,103157.50
2019-03-22T06:08:05.204Z,103167.09
2019-03-22T06:11:10.184Z,103181.22
2019-03-22T06:14:15.296Z,103178.61
2019-03-22T06:17:20.213Z,103175.64
2019-03-22T06:20:25.138Z,103174.45
2019-03-22T06:23:30.016Z,103167.05
2019-03-22T06:26:34.852Z,103178.22
2019-03-22T06:29:39.768Z,103174.64
2019-03-22T06:32:44.657Z,103177.09
2019-03-22T06:35:52.409Z,103169.17
2019-03-22T06:38:57.336Z,103175.25
2019-03-22T06:42:03.122Z,103164.88
2019-03-22T06:45:08.446Z,103164.45
2019-03-22T06:48:13.282Z,103165.75
2019-03-22T06:51:18.114Z,103167.89
2019-03-22T06:54:31.585Z,103170.62
2019-03-22T06:57:29.685Z,103166.02
2019-03-22T07:00:37.708Z,103166.77
2019-03-22T07:03:42.546Z,103175.83
2019-03-22T07:06:47.356Z,103175.64
2019-03-22T07:09:52.211Z,103179.64
2019-03-22T07:12:57.058Z,103175.98
2019-03-22T07:16:01.883Z,103167.50
2019-03-22T07:19:07.187Z,103167.62
2019-03-22T07:22:12.022Z,103166.72
2019-03-22T07:25:18.105Z,103169.84
2019-03-22T07:28:22.943Z,103162.89
2019-03-22T07:31:27.764Z,103159.05
2019-03-22T07:34:32.594Z,103157.33
2019-03-22T07:37:37.430Z,103154.30
2019-03-22T07:40:42.250Z,103153.42
2019-03-22T07:43:47.067Z,103150.80
2019-03-22T07:46:51.891Z,103150.17
2019-03-22T07:49:56.697Z,103146.53
2019-03-22T07:53:01.612Z,103151.64
2019-03-22T07:56:06.600Z,103153.23
2019-03-22T07:59:11.501Z,103140.37
2019-03-22T08:02:16.430Z,103138.37
2019-03-22T08:05:21.360Z,103142.23
2019-03-22T08:08:26.303Z,103147.50
2019-03-22T08:11:31.234Z,103167.23
2019-03-22T08:14:36.064Z,103164.55
2019-03-22T08:17:40.996Z,103153.88
2019-03-22T08:20:46.082Z,103145.88
2019-03-22T08:23:50.983Z,103139.94
2019-03-22T08:26:55.938Z,103138.02
2019-03-22T08:30:02.759Z,103142.76
2019-03-22T08:33:08.226Z,103138.61
2019-03-22T08:36:14.933Z,103129.55
2019-03-22T08:39:19.575Z,103120.53
2019-03-22T08:42:24.504Z,103117.48
2019-03-22T08:45:29.426Z,103113.20
2019-03-22T08:48:34.436Z,103114.11
2019-03-22T08:51:41.694Z,103099.03
2019-03-22T08:54:46.530Z,103089.34
2019-03-22T08:57:51.354Z,103090.23
2019-03-22T09:00:57.904Z,103090.58
2019-03-22T09:04:02.858Z,103093.95
2019-03-22T09:07:07.665Z,103100.72
2019-03-22T09:10:13.529Z,103099.00
2019-03-22T09:13:18.462Z,103091.20
2019-03-22T09:16:23.413Z,103090.22
2019-03-22T09:19:28.278Z,103093.97
2019-03-22T09:22:33.178Z,103097.33
2019-03-22T09:25:37.967Z,103092.67
2019-03-22T09:28:45.096Z,103088.34
2019-03-22T09:31:49.915Z,103078.50
2019-03-22T09:34:54.993Z,103070.06
2019-03-22T09:38:12.049Z,103070.36
2019-03-22T09:41:07.893Z,103069.78
2019-03-22T09:44:14.262Z,103066.77
2019-03-22T09:47:19.162Z,103068.09
2019-03-22T09:50:23.974Z,103063.34
2019-03-22T09:53:30.474Z,103050.20
2019-03-22T09:56:46.452Z,103050.36
2019-03-22T09:59:42.175Z,103044.66
2019-03-22T10:02:47.110Z,103050.58
2019-03-22T10:05:51.951Z,103050.06
2019-03-22T10:08:56.803Z,103049.66
2019-03-22T10:12:01.718Z,103039.06
2019-03-22T10:15:07.180Z,103045.17
2019-03-22T10:18:12.040Z,103043.97
2019-03-22T10:21:22.342Z,103044.38
2019-03-22T10:24:23.765Z,103051.50
2019-03-22T10:27:31.550Z,103041.47
2019-03-22T10:30:36.355Z,103034.78
2019-03-22T10:33:41.208Z,103024.63
2019-03-22T10:36:46.016Z,103037.23
2019-03-22T10:39:50.989Z,103035.84
2019-03-22T10:42:55.839Z,103032.61
2019-03-22T10:46:01.107Z,103023.25
2019-03-22T10:49:05.881Z,103008.80
2019-03-22T10:52:10.653Z,103004.95
2019-03-22T10:55:29.303Z,103019.56
2019-03-22T10:58:22.367Z,103025.36
2019-03-22T11:01:27.257Z,103014.48
2019-03-22T11:04:32.063Z,103007.81
2019-03-22T11:07:36.899Z,103008.16
2019-03-22T11:10:41.855Z,103007.83
2019-03-22T11:13:49.783Z,103004.29
2019-03-22T11:16:56.135Z,103016.86
2019-03-22T11:20:00.978Z,102997.15
2019-03-22T11:23:05.909Z,102993.89
2019-03-22T11:26:10.769Z,102995.13
2019-03-22T11:29:18.559Z,102973.19
2019-03-22T11:32:23.494Z,102979.23
2019-03-22T11:35:31.631Z,102973.78
2019-03-22T11:38:36.452Z,102966.61
2019-03-22T11:41:41.659Z,102968.88
2019-03-22T11:44:46.497Z,102966.78
2019-03-22T11:47:51.317Z,102967.62
2019-03-22T11:50:56.210Z,102972.70
2019-03-22T11:54:01.129Z,102964.88
2019-03-22T11:57:06.244Z,102950.95
2019-03-22T12:00:15.435Z,102956.15
2019-03-22T12:03:20.286Z,102963.20
2019-03-22T12:06:27.280Z,102949.31
2019-03-22T12:09:31.811Z,102952.37
2019-03-22T12:12:36.697Z,102945.79
2019-03-22T12:15:41.548Z,102935.32
2019-03-22T12:18:46.391Z,102935.91
2019-03-22T12:21:51.218Z,102937.38
2019-03-22T12:24:56.087Z,102940.39
2019-03-22T12:28:01.018Z,102944.77
2019-03-22T12:31:05.932Z,102944.78
2019-03-22T12:34:11.002Z,102941.19
2019-03-22T12:37:15.936Z,102932.53
2019-03-22T12:40:21.230Z,102934.72
2019-03-22T12:43:28.472Z,102941.77
2019-03-22T12:46:33.403Z,102935.28
2019-03-22T12:49:38.373Z,102935.45
2019-03-22T12:52:43.527Z,102924.81
2019-03-22T12:55:48.791Z,102922.75
2019-03-22T12:58:53.704Z,102913.02
2019-03-22T13:01:58.539Z,102922.92
2019-03-22T13:05:03.453Z,102915.38
2019-03-22T13:08:08.411Z,102899.42
2019-03-22T13:11:14.712Z,102898.05
2019-03-22T13:14:19.540Z,102889.70
2019-03-22T13:17:24.525Z,102886.14
2019-03-22T13:20:32.336Z,102880.40
2019-03-22T13:23:37.205Z,102878.70
2019-03-22T13:26:42.047Z,102879.70
2019-03-22T13:29:47.231Z,102873.44
2019-03-22T13:32:52.419Z,102862.08
2019-03-22T13:35:57.442Z,102859.07
2019-03-22T13:39:02.340Z,102850.31
2019-03-22T13:42:07.173Z,102847.09
2019-03-22T13:45:12.013Z,102842.69
2019-03-22T13:48:16.849Z,102839.16
2019-03-22T13:51:21.775Z,102834.73
2019-03-22T13:54:29.446Z,102834.41
2019-03-22T13:57:36.986Z,102819.41
2019-03-22T14:00:41.823Z,102808.75
2019-03-22T14:03:46.682Z,102812.83
2019-03-22T14:06:51.599Z,102809.25
2019-03-22T14:09:56.425Z,102803.44
2019-03-22T14:13:01.821Z,102804.82
2019-03-22T14:16:06.641Z,102798.16
2019-03-22T14:19:11.507Z,102789.34
2019-03-22T14:22:16.368Z,102780.48
2019-03-22T14:25:21.339Z,102775.63
2019-03-22T14:28:26.523Z,102777.38
2019-03-22T14:31:31.447Z,102769.81
2019-03-22T14:34:37.633Z,102764.92
2019-03-22T14:37:42.518Z,102757.80
2019-03-22T14:40:50.473Z,102753.41
2019-03-22T14:43:55.395Z,102742.77
2019-03-22T14:47:03.423Z,102743.61
2019-03-22T14:50:08.797Z,102744.05
2019-03-22T14:53:13.658Z,102745.86
2019-03-22T14:56:21.337Z,102732.09
2019-03-22T14:59:26.166Z,102719.64
2019-03-22T15:02:31.002Z,102725.91
2019-03-22T15:05:35.843Z,102715.23
2019-03-22T15:08:40.706Z,102703.67
2019-03-22T15:11:45.655Z,102695.69
2019-03-22T15:15:11.027Z,102692.14
2019-03-22T15:18:40.881Z,102688.19
2019-03-22T15:22:10.689Z,102685.55
2019-03-22T15:25:27.879Z,102679.28
2019-03-22T15:28:53.784Z,102673.95
2019-03-22T15:32:14.249Z,102664.14
2019-03-22T15:35:36.588Z,102670.33
2019-03-22T15:38:59.129Z,102654.31
2019-03-22T15:42:04.187Z,102656.53
2019-03-22T15:45:11.015Z,102653.88
2019-03-22T15:48:15.895Z,102649.52
2019-03-22T15:51:20.787Z,102648.27
2019-03-22T15:54:25.653Z,102649.61
2019-03-22T15:57:30.698Z,102653.17
2019-03-22T16:00:35.570Z,102651.38
2019-03-22T16:03:44.344Z,102655.82
2019-03-22T16:06:49.034Z,102653.14
2019-03-22T16:09:53.997Z,102655.39
2019-03-22T16:12:58.960Z,102663.81
2019-03-22T16:16:04.080Z,102657.13
2019-03-22T16:19:09.052Z,102663.36
2019-03-22T16:22:13.905Z,102655.37
2019-03-22T16:25:18.866Z,102650.50
2019-03-22T16:28:23.712Z,102651.40
2019-03-22T16:31:28.558Z,102647.39
2019-03-22T16:34:33.394Z,102634.97
2019-03-22T16:37:38.525Z,102641.61
2019-03-22T16:40:43.366Z,102636.73
2019-03-22T16:43:48.325Z,102634.52
2019-03-22T16:46:53.306Z,102628.30
2019-03-22T16:49:58.172Z,102623.40
2019-03-22T16:53:03.133Z,102616.75
2019-03-22T16:56:09.509Z,102611.80
2019-03-22T16:59:16.813Z,102612.67
2019-03-22T17:02:21.947Z,102602.01
2019-03-22T17:05:26.801Z,102597.57
2019-03-22T17:08:33.230Z,102590.44
2019-03-22T17:11:38.249Z,102591.75
2019-03-22T17:14:43.341Z,102590.39
2019-03-22T17:17:48.225Z,102588.59
2019-03-22T17:20:58.271Z,102579.23
2019-03-22T17:24:03.277Z,102575.67
2019-03-22T17:27:08.237Z,102571.61
2019-03-22T17:30:13.710Z,102570.69
2019-03-22T17:33:18.551Z,102570.60
2019-03-22T17:36:26.584Z,102567.02
2019-03-22T17:39:31.439Z,102564.33
2019-03-22T17:42:36.324Z,102570.04
2019-03-22T17:45:44.226Z,102576.61
2019-03-22T17:48:49.179Z,102575.20
2019-03-22T17:51:54.149Z,102576.80
2019-03-22T17:54:59.196Z,102571.88
2019-03-22T17:58:04.274Z,102570.94
2019-03-22T18:01:09.231Z,102561.13
2019-03-22T18:04:23.694Z,102569.08
2019-03-22T18:07:20.668Z,102560.61
2019-03-22T18:10:25.510Z,102561.87
2019-03-22T18:13:31.460Z,102557.00
2019-03-22T18:16:36.368Z,102562.61
2019-03-22T18:19:41.432Z,102563.94
2019-03-22T18:22:49.149Z,102558.17
2019-03-22T18:25:56.861Z,102566.06
2019-03-22T18:29:04.405Z,102566.44
2019-03-22T18:32:09.445Z,102558.42
2019-03-22T18:35:14.571Z,102555.77
2019-03-22T18:38:19.532Z,102554.39
2019-03-22T18:41:24.413Z,102552.15
2019-03-22T18:44:29.364Z,102552.15
2019-03-22T18:47:34.544Z,102553.34
2019-03-22T18:50:39.405Z,102548.41
2019-03-22T18:53:46.296Z,102544.39
2019-03-22T18:56:50.998Z,102546.97
2019-03-22T18:59:57.528Z,102550.45
2019-03-22T19:03:02.421Z,102553.04
2019-03-22T19:06:07.251Z,102548.10
2019-03-22T19:09:14.595Z,102554.29
2019-03-22T19:12:19.537Z,102543.27
2019-03-22T19:15:24.422Z,102541.05
2019-03-22T19:18:29.263Z,102541.53
2019-03-22T19:21:37.817Z,102542.30
2019-03-22T19:24:42.964Z,102539.64
2019-03-22T19:27:48.117Z,102536.59
2019-03-22T19:30:54.615Z,102530.73
2019-03-22T19:33:59.879Z,102521.59
2019-03-22T19:37:04.992Z,102518.88
2019-03-22T19:40:10.330Z,102518.73
2019-03-22T19:43:15.515Z,102514.09
2019-03-22T19:46:20.684Z,102509.16
2019-03-22T19:49:25.662Z,102507.27
2019-03-22T19:52:34.894Z,102500.63
2019-03-22T19:55:40.149Z,102497.56
2019-03-22T19:58:45.170Z,102491.30
2019-03-22T20:01:52.150Z,102486.84
2019-03-22T20:05:04.737Z,102487.27
2019-03-22T20:08:05.037Z,102485.02
2019-03-22T20:11:10.080Z,102481.95
2019-03-22T20:14:17.763Z,102481.55
2019-03-22T20:17:22.890Z,102476.60
2019-03-22T20:20:28.042Z,102474.83
2019-03-22T20:23:33.292Z,102469.42
2019-03-22T20:26:38.588Z,102459.66
2019-03-22T20:29:43.772Z,102454.34
2019-03-22T20:32:48.975Z,102449.01
2019-03-22T20:35:54.282Z,102442.85
2019-03-22T20:38:59.291Z,102440.63
2019-03-22T20:42:04.590Z,102436.65
2019-03-22T20:45:10.647Z,102439.66
2019-03-22T20:48:15.659Z,102433.46
2019-03-22T20:51:21.117Z,102428.56
2019-03-22T20:54:26.863Z,102433.84
2019-03-22T20:57:33.815Z,102428.90
2019-03-22T21:00:38.953Z,102423.47
2019-03-22T21:03:44.082Z,102420.73
2019-03-22T21:06:49.051Z,102414.52
2019-03-22T21:09:54.223Z,102419.74
2019-03-22T21:12:59.230Z,102413.15
2019-03-22T21:16:04.126Z,102410.98
2019-03-22T21:19:09.130Z,102405.36
2019-03-22T21:22:14.379Z,102409.40
2019-03-22T21:25:19.528Z,102405.93
2019-03-22T21:28:24.600Z,102405.08
2019-03-22T21:31:31.570Z,102393.63
2019-03-22T21:34:36.642Z,102389.30
2019-03-22T21:37:41.565Z,102378.37
2019-03-22T21:40:46.587Z,102386.38
2019-03-22T21:43:51.787Z,102378.02
2019-03-22T21:46:56.740Z,102368.35
2019-03-22T21:50:01.606Z,102361.73
2019-03-22T21:53:06.518Z,102365.23
2019-03-22T21:56:11.405Z,102361.30
2019-03-22T21:59:18.602Z,102359.59
2019-03-22T22:02:26.237Z,102353.09
2019-03-22T22:05:36.224Z,102353.93
2019-03-22T22:08:44.730Z,102355.30
2019-03-22T22:11:51.755Z,102347.86
2019-03-22T22:15:00.842Z,102352.67
2019-03-22T22:18:08.029Z,102354.00
2019-03-22T22:21:15.173Z,102350.45
2019-03-22T22:24:22.535Z,102345.16
2019-03-22T22:27:29.926Z,102339.86
2019-03-22T22:30:37.694Z,102331.44
2019-03-22T22:33:44.975Z,102325.01
2019-03-22T22:36:52.252Z,102328.30
2019-03-22T22:40:00.129Z,102329.62
2019-03-22T22:43:06.841Z,102333.26
2019-03-22T22:46:11.780Z,102345.66
2019-03-22T22:49:16.719Z,102355.83
2019-03-22T22:52:21.819Z,102381.36
2019-03-22T22:55:26.855Z,102380.79
2019-03-22T22:58:31.793Z,102386.23
2019-03-22T23:01:37.245Z,102382.32
2019-03-22T23:04:42.199Z,102390.69
2019-03-22T23:07:47.094Z,102395.25
2019-03-22T23:10:52.337Z,102405.06
2019-03-22T23:13:57.296Z,102404.20
2019-03-22T23:17:02.156Z,102405.42
2019-03-22T23:20:08.708Z,102404.47
2019-03-22T23:23:13.644Z,102414.11
2019-03-22T23:26:18.574Z,102408.58
2019-03-22T23:29:23.515Z,102406.66
2019-03-22T23:32:28.361Z,102405.67
2019-03-22T23:35:33.215Z,102412.65
2019-03-22T23:38:38.050Z,102399.35
2019-03-22T23:41:42.917Z,102401.98
2019-03-22T23:44:47.783Z,102407.64
2019-03-22T23:47:53.027Z,102401.91
2019-03-22T23:50:57.930Z,102401.42
2019-03-22T23:54:02.866Z,102404.06
2019-03-22T23:57:07.826Z,102394.75
